Time;durP1;ratioP1;P1;durP2;ratioP2;P2;SDS_P1;SDS_P2;PMS_P1;PMS_P2;Temp;Humidity;BMP_temperature;BMP_pressure;BME280_temperature;BME280_humidity;BME280_pressure;Samples;Min_cycle;Max_cycle;Signal;HPM_P1;HPM_P2
2023/03/04 00:02:13;;;;;;;10.10;2.35;;;7.40;99.90;;;;;;5041904;27;89840;-78
2023/03/04 00:04:40;;;;;;;11.15;1.70;;;7.40;99.90;;;;;;5042752;27;88716;-78
2023/03/04 00:07:07;;;;;;;8.90;2.08;;;7.40;99.90;;;;;;5060691;27;88660;-78
2023/03/04 00:09:34;;;;;;;14.27;3.03;;;7.40;99.90;;;;;;5042304;27;89518;-78
2023/03/04 00:12:01;;;;;;;11.45;2.15;;;7.40;99.90;;;;;;5041945;27;91068;-78
2023/03/04 00:14:28;;;;;;;11.95;2.00;;;7.40;99.90;;;;;;5042473;27;91287;-78
2023/03/04 00:16:56;;;;;;;10.77;1.90;;;7.40;99.90;;;;;;5026177;27;88707;-78
2023/03/04 00:19:23;;;;;;;6.15;1.88;;;7.40;99.90;;;;;;5042096;27;95444;-78
2023/03/04 00:21:50;;;;;;;15.05;2.35;;;7.40;99.90;;;;;;5060350;27;88467;-78
2023/03/04 00:24:17;;;;;;;13.63;2.10;;;7.40;99.90;;;;;;5059888;27;89495;-78
2023/03/04 00:26:45;;;;;;;9.43;2.40;;;7.40;99.90;;;;;;5042309;27;89223;-78
2023/03/04 00:29:12;;;;;;;12.13;2.03;;;7.40;99.90;;;;;;5026373;27;88071;-78
2023/03/04 00:31:39;;;;;;;14.10;3.08;;;7.40;99.90;;;;;;5058942;27;91172;-78
2023/03/04 00:34:06;;;;;;;7.63;1.90;;;7.40;99.90;;;;;;5041564;27;91407;-78
2023/03/04 00:36:33;;;;;;;11.00;2.15;;;7.40;99.90;;;;;;5041890;27;91150;-78
2023/03/04 00:39:00;;;;;;;9.82;1.98;;;7.40;99.90;;;;;;5024994;27;89769;-78
2023/03/04 00:41:27;;;;;;;10.98;1.90;;;7.40;99.90;;;;;;5042293;27;88363;-78
2023/03/04 00:43:54;;;;;;;9.27;2.28;;;7.40;99.90;;;;;;5024717;27;91744;-78
2023/03/04 00:46:21;;;;;;;10.80;2.13;;;7.40;99.90;;;;;;5024834;27;91289;-78
2023/03/04 00:48:48;;;;;;;12.30;2.28;;;7.40;99.90;;;;;;5041806;27;89288;-78
2023/03/04 00:51:15;;;;;;;12.00;1.65;;;7.40;99.90;;;;;;5041603;27;89543;-78
2023/03/04 00:53:42;;;;;;;16.58;2.38;;;7.40;99.90;;;;;;5024812;27;92154;-78
2023/03/04 00:56:09;;;;;;;8.30;2.63;;;7.40;99.90;;;;;;5059885;27;88802;-78
2023/03/04 00:58:36;;;;;;;11.70;2.17;;;7.40;99.90;;;;;;5059785;27;93610;-78
2023/03/04 01:01:03;;;;;;;7.50;1.98;;;7.40;99.90;;;;;;5024239;27;90166;-78
2023/03/04 01:03:31;;;;;;;7.43;1.65;;;7.40;99.90;;;;;;5024714;27;91447;-78
2023/03/04 01:05:58;;;;;;;10.98;2.17;;;7.40;99.90;;;;;;5058781;27;88691;-78
2023/03/04 01:08:25;;;;;;;11.60;2.28;;;7.40;99.90;;;;;;5025019;27;88004;-78
2023/03/04 01:10:52;;;;;;;9.05;1.70;;;7.40;99.90;;;;;;5024582;27;91158;-78
2023/03/04 01:13:19;;;;;;;6.95;1.50;;;7.40;99.90;;;;;;5040778;27;91487;-78
2023/03/04 01:15:47;;;;;;;6.90;2.30;;;7.40;99.90;;;;;;5059541;27;89427;-78
2023/03/04 01:18:14;;;;;;;4.95;1.60;;;7.40;99.90;;;;;;5059733;27;88199;-78
2023/03/04 01:20:41;;;;;;;11.38;1.88;;;7.40;99.90;;;;;;5040902;27;91283;-78
2023/03/04 01:23:08;;;;;;;3.88;1.23;;;7.30;99.90;;;;;;5024692;27;88837;-78
2023/03/04 01:25:35;;;;;;;14.07;2.25;;;7.30;99.90;;;;;;5024448;27;91187;-78
2023/03/04 01:28:02;;;;;;;7.10;2.00;;;7.40;99.90;;;;;;5024139;27;89674;-78
2023/03/04 01:30:29;;;;;;;8.50;2.20;;;7.40;99.90;;;;;;5024782;27;91189;-78
2023/03/04 01:32:57;;;;;;;5.63;1.38;;;7.40;99.90;;;;;;5024201;27;91988;-78
2023/03/04 01:35:24;;;;;;;8.07;1.65;;;7.40;99.90;;;;;;5059190;27;88728;-78
2023/03/04 01:37:51;;;;;;;8.40;2.10;;;7.40;99.90;;;;;;5023895;27;89648;-78
2023/03/04 01:40:18;;;;;;;8.70;2.13;;;7.40;99.90;;;;;;5024051;27;90075;-78
2023/03/04 01:42:45;;;;;;;6.15;2.13;;;7.40;99.90;;;;;;5007433;27;91338;-78
2023/03/04 01:45:18;;;;;;;13.75;2.28;;;7.40;99.90;;;;;;5057588;27;91242;-78
2023/03/04 01:47:49;;;;;;;11.15;2.10;;;7.40;99.90;;;;;;5040628;27;88154;-78
2023/03/04 01:50:37;;;;;;;9.60;2.33;;;7.40;99.90;;;;;;5024474;27;91050;-78
2023/03/04 01:53:05;;;;;;;5.40;1.42;;;7.50;99.90;;;;;;5040737;27;91895;-78
2023/03/04 01:55:32;;;;;;;6.15;1.83;;;7.40;99.90;;;;;;5007666;27;91256;-78
2023/03/04 01:57:59;;;;;;;8.60;1.60;;;7.40;99.90;;;;;;5023905;27;89143;-78
2023/03/04 02:00:30;;;;;;;7.40;1.60;;;7.40;99.90;;;;;;5058650;27;89614;-78
2023/03/04 02:03:06;;;;;;;9.02;2.38;;;7.30;99.90;;;;;;5036317;28;92076;-78
2023/03/04 02:05:35;;;;;;;10.68;1.50;;;7.30;99.90;;;;;;5037089;28;92235;-78
2023/03/04 02:08:04;;;;;;;11.25;2.28;;;7.30;99.90;;;;;;5038525;27;88607;-78
2023/03/04 02:10:31;;;;;;;10.43;2.55;;;7.30;99.90;;;;;;5036655;27;88093;-78
2023/03/04 02:12:59;;;;;;;13.88;2.22;;;7.20;99.90;;;;;;5038385;27;88822;-78
2023/03/04 02:15:27;;;;;;;5.47;1.27;;;7.20;99.90;;;;;;5036689;28;91231;-78
2023/03/04 02:17:54;;;;;;;6.60;1.88;;;7.30;99.90;;;;;;5038284;28;88067;-78
2023/03/04 02:20:21;;;;;;;9.38;2.00;;;7.20;99.90;;;;;;5038708;27;88349;-78
2023/03/04 02:22:58;;;;;;;9.38;1.48;;;7.30;99.90;;;;;;5020041;28;91326;-78
2023/03/04 02:25:38;;;;;;;9.40;1.88;;;7.20;99.90;;;;;;5036461;28;91265;-79
2023/03/04 02:28:06;;;;;;;10.68;1.88;;;7.20;99.90;;;;;;5036329;28;88895;-78
2023/03/04 02:30:33;;;;;;;10.52;2.15;;;7.20;99.90;;;;;;5037120;28;88280;-78
2023/03/04 02:33:00;;;;;;;8.57;1.77;;;7.20;99.90;;;;;;5036933;28;88700;-78
2023/03/04 02:35:29;;;;;;;11.85;2.05;;;7.20;99.90;;;;;;5019913;28;91173;-78
2023/03/04 02:37:56;;;;;;;6.22;1.70;;;7.20;99.90;;;;;;5036890;28;87985;-78
2023/03/04 02:40:30;;;;;;;9.75;1.85;;;7.20;99.90;;;;;;5019801;28;91300;-78
2023/03/04 02:42:59;;;;;;;11.13;1.80;;;7.20;99.90;;;;;;5036600;28;91271;-78
2023/03/04 02:45:35;;;;;;;9.68;1.55;;;7.10;99.90;;;;;;5020021;28;91145;-78
2023/03/04 02:48:05;;;;;;;10.75;2.10;;;7.20;99.90;;;;;;5036623;28;87995;-78
2023/03/04 02:50:36;;;;;;;14.15;1.92;;;7.20;99.90;;;;;;5036440;28;91255;-78
2023/03/04 02:53:04;;;;;;;10.15;1.70;;;7.10;99.90;;;;;;5036034;28;92106;-78
2023/03/04 02:55:31;;;;;;;10.35;1.75;;;7.20;99.90;;;;;;5036098;28;91762;-78
2023/03/04 02:57:59;;;;;;;11.32;2.28;;;7.20;99.90;;;;;;5036460;28;88764;-78
2023/03/04 03:00:27;;;;;;;12.05;1.98;;;7.20;99.90;;;;;;5036171;28;90814;-78
2023/03/04 03:02:55;;;;;;;11.02;2.33;;;7.20;99.90;;;;;;5053750;27;88887;-78
2023/03/04 03:05:25;;;;;;;5.40;1.63;;;7.20;99.90;;;;;;5039491;27;90443;-78
2023/03/04 03:07:54;;;;;;;8.30;2.40;;;7.20;99.90;;;;;;5058138;27;88016;-78
2023/03/04 03:10:21;;;;;;;10.10;2.30;;;7.10;99.90;;;;;;5039735;27;91495;-78
2023/03/04 03:12:49;;;;;;;12.70;2.30;;;7.20;99.90;;;;;;5039613;27;92064;-78
2023/03/04 03:15:16;;;;;;;11.80;2.13;;;7.20;99.90;;;;;;5039284;27;90965;-78
2023/03/04 03:17:44;;;;;;;9.73;2.40;;;7.20;99.90;;;;;;5057750;27;89178;-78
2023/03/04 03:20:13;;;;;;;8.90;2.53;;;7.20;99.90;;;;;;5039321;27;91116;-78
2023/03/04 03:22:41;;;;;;;17.40;2.67;;;7.30;99.90;;;;;;5041528;27;91184;-78
2023/03/04 03:25:11;;;;;;;13.65;2.08;;;7.30;99.90;;;;;;5042809;27;91397;-78
2023/03/04 03:27:38;;;;;;;10.80;2.17;;;7.40;99.90;;;;;;5042920;27;89411;-78
2023/03/04 03:30:07;;;;;;;11.15;2.03;;;7.40;99.90;;;;;;5043026;27;90859;-78
2023/03/04 03:32:36;;;;;;;13.02;2.60;;;7.40;99.90;;;;;;5042671;27;91645;-78
2023/03/04 03:35:03;;;;;;;7.97;2.15;;;7.40;99.90;;;;;;5061777;27;88252;-78
2023/03/04 03:37:31;;;;;;;12.20;2.47;;;7.40;99.90;;;;;;5061147;27;88096;-78
2023/03/04 03:39:57;;;;;;;10.82;2.42;;;7.40;99.90;;;;;;5042838;27;101812;-78
2023/03/04 03:42:24;;;;;;;7.78;1.60;;;7.50;99.90;;;;;;5060343;27;89592;-78
2023/03/04 03:44:51;;;;;;;7.32;1.65;;;7.50;99.90;;;;;;5025799;27;91047;-78
2023/03/04 03:47:18;;;;;;;6.63;1.50;;;7.40;99.90;;;;;;5042772;27;89270;-78
2023/03/04 03:49:45;;;;;;;6.95;1.73;;;7.40;99.90;;;;;;5061151;27;88221;-78
2023/03/04 03:52:12;;;;;;;6.38;1.27;;;7.40;99.90;;;;;;5042889;27;88138;-78
2023/03/04 03:54:39;;;;;;;12.80;2.40;;;7.40;99.90;;;;;;5042639;27;88588;-78
2023/03/04 03:57:06;;;;;;;7.47;1.98;;;7.40;99.90;;;;;;5042493;27;88089;-78
2023/03/04 03:59:33;;;;;;;12.38;1.85;;;7.40;99.90;;;;;;5042735;27;93962;-78
2023/03/04 04:02:00;;;;;;;7.80;1.73;;;7.40;99.90;;;;;;5008575;27;90627;-78
2023/03/04 04:04:27;;;;;;;10.52;1.83;;;7.30;99.90;;;;;;5060602;27;88552;-78
2023/03/04 04:06:54;;;;;;;9.07;1.80;;;7.30;99.90;;;;;;5042590;27;89347;-78
2023/03/04 04:09:21;;;;;;;11.85;2.08;;;7.30;99.90;;;;;;5041972;27;90931;-79
2023/03/04 04:11:48;;;;;;;8.30;1.67;;;7.30;99.90;;;;;;5025573;27;91267;-78
2023/03/04 04:14:15;;;;;;;10.55;1.60;;;7.30;99.90;;;;;;5042241;27;91363;-78
2023/03/04 04:16:42;;;;;;;7.47;1.90;;;7.30;99.90;;;;;;5060355;27;94781;-78
2023/03/04 04:19:16;;;;;;;8.85;1.80;;;7.20;99.90;;;;;;5059409;27;88667;-78
2023/03/04 04:21:43;;;;;;;8.70;1.77;;;7.30;99.90;;;;;;5041983;27;91204;-79
2023/03/04 04:24:10;;;;;;;11.70;2.60;;;7.20;99.90;;;;;;5060764;27;87555;-78
2023/03/04 04:26:37;;;;;;;6.90;1.52;;;7.20;99.90;;;;;;5060148;27;87967;-78
2023/03/04 04:29:04;;;;;;;7.47;1.77;;;7.20;99.90;;;;;;5060442;27;88435;-78
2023/03/04 04:31:30;;;;;;;8.27;1.77;;;7.30;99.90;;;;;;5041436;27;92000;-78
2023/03/04 04:33:57;;;;;;;7.63;1.88;;;7.30;99.90;;;;;;5041981;27;89234;-78
2023/03/04 04:36:24;;;;;;;8.93;1.52;;;7.30;99.90;;;;;;5008070;27;97846;-78
2023/03/04 04:38:51;;;;;;;8.05;1.50;;;7.30;99.90;;;;;;5042240;27;88380;-78
2023/03/04 04:41:25;;;;;;;6.75;1.42;;;7.40;99.90;;;;;;5008669;27;92034;-78
2023/03/04 04:43:53;;;;;;;9.02;1.50;;;7.40;99.90;;;;;;5041685;27;91740;-78
2023/03/04 04:46:20;;;;;;;7.60;1.98;;;7.40;99.90;;;;;;5060146;27;88063;-78
2023/03/04 04:48:47;;;;;;;10.85;1.52;;;7.40;99.90;;;;;;5025343;27;91420;-78
2023/03/04 04:51:14;;;;;;;5.75;1.65;;;7.40;99.90;;;;;;5041644;27;91425;-78
2023/03/04 04:53:41;;;;;;;7.00;1.50;;;7.40;99.90;;;;;;5059914;27;88514;-78
2023/03/04 04:56:20;;;;;;;12.73;1.63;;;7.40;99.90;;;;;;5041499;27;88750;-78
2023/03/04 04:58:48;;;;;;;10.90;1.65;;;7.40;99.90;;;;;;5024530;27;91498;-78
2023/03/04 05:01:15;;;;;;;6.40;1.80;;;7.40;99.90;;;;;;5041311;27;88773;-78
2023/03/04 05:03:42;;;;;;;8.93;1.83;;;7.40;99.90;;;;;;5040992;27;91187;-78
2023/03/04 05:06:10;;;;;;;7.90;1.60;;;7.40;99.90;;;;;;5059989;27;87935;-78
2023/03/04 05:08:38;;;;;;;9.77;1.35;;;7.40;99.90;;;;;;5041397;27;88392;-78
2023/03/04 05:11:06;;;;;;;11.35;1.63;;;7.40;99.90;;;;;;5059661;27;88892;-78
2023/03/04 05:13:34;;;;;;;5.38;1.80;;;7.40;99.90;;;;;;5041306;27;91662;-78
2023/03/04 05:16:01;;;;;;;6.43;1.35;;;7.40;99.90;;;;;;5025036;27;88109;-78
2023/03/04 05:18:28;;;;;;;9.65;1.60;;;7.40;99.90;;;;;;5040969;27;91052;-78
2023/03/04 05:21:01;;;;;;;8.60;1.70;;;7.40;99.90;;;;;;5041079;27;89691;-79
2023/03/04 05:23:31;;;;;;;5.53;1.48;;;7.40;99.90;;;;;;5041348;27;89117;-78
2023/03/04 05:25:58;;;;;;;6.95;1.80;;;7.40;99.90;;;;;;5041909;27;88640;-78
2023/03/04 05:28:26;;;;;;;7.82;2.03;;;7.40;99.90;;;;;;5059426;27;88408;-78
2023/03/04 05:30:53;;;;;;;5.78;1.17;;;7.30;99.90;;;;;;5059164;27;89620;-78
2023/03/04 05:33:20;;;;;;;5.88;1.55;;;7.20;99.90;;;;;;5007866;27;90162;-78
2023/03/04 05:35:48;;;;;;;6.43;1.45;;;7.30;99.90;;;;;;5057835;27;88108;-78
2023/03/04 05:38:18;;;;;;;11.23;1.70;;;7.20;99.90;;;;;;5041641;27;88407;-78
2023/03/04 05:40:46;;;;;;;5.80;1.60;;;7.20;99.90;;;;;;5040870;27;88981;-78
2023/03/04 05:43:14;;;;;;;8.50;1.60;;;7.20;99.90;;;;;;5040476;27;100601;-78
2023/03/04 05:45:41;;;;;;;9.98;1.88;;;7.20;99.90;;;;;;5039649;27;89094;-78
2023/03/04 05:48:08;;;;;;;9.98;1.92;;;7.20;99.90;;;;;;5024004;27;91071;-78
2023/03/04 05:50:35;;;;;;;9.35;1.55;;;7.20;99.90;;;;;;5040384;27;91293;-78
2023/03/04 05:53:02;;;;;;;7.22;1.73;;;7.20;99.90;;;;;;5007238;27;91149;-78
2023/03/04 05:55:29;;;;;;;7.43;1.85;;;7.20;99.90;;;;;;5007748;27;89396;-78
2023/03/04 05:57:57;;;;;;;6.53;1.80;;;7.10;99.90;;;;;;5040464;27;95937;-78
2023/03/04 06:00:25;;;;;;;10.75;1.98;;;7.10;99.90;;;;;;5059072;27;89262;-78
2023/03/04 06:02:52;;;;;;;9.48;1.50;;;7.10;99.90;;;;;;5058093;27;88683;-78
2023/03/04 06:05:20;;;;;;;13.48;1.88;;;7.00;99.90;;;;;;5058997;27;87933;-78
2023/03/04 06:07:47;;;;;;;8.85;2.65;;;7.00;99.90;;;;;;5058556;27;88376;-78
2023/03/04 06:10:16;;;;;;;9.23;1.40;;;6.90;99.90;;;;;;5057253;27;89388;-78
2023/03/04 06:12:43;;;;;;;8.15;1.80;;;6.80;99.90;;;;;;5023355;27;92021;-80
2023/03/04 06:15:11;;;;;;;5.97;1.98;;;6.80;99.90;;;;;;5023782;27;93082;-78
2023/03/04 06:17:40;;;;;;;7.78;1.80;;;6.80;99.90;;;;;;5040294;27;90881;-78
2023/03/04 06:20:10;;;;;;;6.97;1.70;;;6.90;99.90;;;;;;5040548;27;89827;-78
2023/03/04 06:22:37;;;;;;;12.70;1.90;;;6.80;99.90;;;;;;5039913;27;91388;-78
2023/03/04 06:25:04;;;;;;;7.22;2.00;;;6.90;99.90;;;;;;5023581;27;89491;-78
2023/03/04 06:27:31;;;;;;;6.50;2.08;;;6.90;99.90;;;;;;5023875;27;89984;-79
2023/03/04 06:30:00;;;;;;;10.18;1.95;;;6.90;99.90;;;;;;5040338;27;88934;-78
2023/03/04 06:32:27;;;;;;;6.13;2.08;;;7.00;99.90;;;;;;5040576;27;88552;-78
2023/03/04 06:34:54;;;;;;;7.93;2.50;;;7.00;99.90;;;;;;5039891;27;91069;-79
2023/03/04 06:37:21;;;;;;;9.27;2.70;;;7.00;99.90;;;;;;5057250;27;88406;-78
2023/03/04 06:39:48;;;;;;;6.25;2.35;;;7.00;99.90;;;;;;5039587;27;91301;-78
2023/03/04 06:42:16;;;;;;;7.20;2.20;;;7.00;99.90;;;;;;4990213;27;90093;-78
2023/03/04 06:44:43;;;;;;;12.20;2.60;;;7.00;99.90;;;;;;5040189;27;88087;-78
2023/03/04 06:47:10;;;;;;;7.13;2.05;;;6.90;99.90;;;;;;5023518;27;88504;-78
2023/03/04 06:49:36;;;;;;;7.03;2.10;;;6.90;99.90;;;;;;5057811;27;97952;-78
2023/03/04 06:52:04;;;;;;;8.63;1.98;;;7.00;99.90;;;;;;5040100;27;91264;-78
2023/03/04 06:54:30;;;;;;;7.80;2.13;;;7.00;99.90;;;;;;5058462;27;88697;-78
2023/03/04 06:56:57;;;;;;;5.38;1.60;;;7.00;99.90;;;;;;5022789;27;89831;-78
2023/03/04 06:59:24;;;;;;;4.72;1.40;;;7.00;99.90;;;;;;5039622;27;90356;-78
2023/03/04 07:01:51;;;;;;;5.10;1.30;;;7.00;99.90;;;;;;5056949;27;89168;-78
2023/03/04 07:04:18;;;;;;;6.07;1.90;;;6.90;99.90;;;;;;5022710;27;89666;-78
2023/03/04 07:06:45;;;;;;;6.18;1.10;;;6.80;99.90;;;;;;5039887;27;88270;-78
2023/03/04 07:09:12;;;;;;;3.92;1.70;;;6.80;99.90;;;;;;5022887;27;90772;-78
2023/03/04 07:11:39;;;;;;;3.67;1.30;;;6.80;99.90;;;;;;5057869;27;90123;-78
2023/03/04 07:14:06;;;;;;;5.72;1.67;;;6.90;99.90;;;;;;5039703;27;88182;-78
2023/03/04 07:16:34;;;;;;;9.20;1.45;;;6.90;99.90;;;;;;5058413;27;88719;-80
2023/03/04 07:19:01;;;;;;;3.63;1.10;;;7.00;99.90;;;;;;5005980;27;91434;-80
2023/03/04 07:21:28;;;;;;;6.47;2.00;;;7.00;99.90;;;;;;5039489;27;91266;-80
2023/03/04 07:23:55;;;;;;;4.93;1.40;;;7.10;99.90;;;;;;5038702;27;89046;-80
2023/03/04 07:26:22;;;;;;;6.78;1.67;;;7.10;99.90;;;;;;5022807;27;89290;-80
2023/03/04 07:28:51;;;;;;;4.55;1.67;;;7.20;99.90;;;;;;5056134;27;91704;-80
2023/03/04 07:31:23;;;;;;;5.72;1.30;;;7.20;99.90;;;;;;5039364;27;91285;-80
2023/03/04 07:33:50;;;;;;;6.22;1.35;;;7.20;99.90;;;;;;5057777;27;87950;-80
2023/03/04 07:36:18;;;;;;;5.88;1.10;;;7.20;99.90;;;;;;5022618;27;90824;-80
2023/03/04 07:38:47;;;;;;;7.32;1.63;;;7.20;99.90;;;;;;5006318;27;91774;-80
2023/03/04 07:41:16;;;;;;;6.15;1.20;;;7.30;99.90;;;;;;5023102;27;91076;-80
2023/03/04 07:43:44;;;;;;;6.13;1.20;;;7.20;99.90;;;;;;5023269;27;88119;-80
2023/03/04 07:46:11;;;;;;;6.43;1.50;;;7.20;99.90;;;;;;5022113;27;90926;-80
2023/03/04 07:48:38;;;;;;;4.63;1.27;;;7.20;99.90;;;;;;5055428;27;92060;-80
2023/03/04 07:51:13;;;;;;;4.72;1.40;;;7.20;99.90;;;;;;5038864;27;92335;-80
2023/03/04 07:53:43;;;;;;;7.05;1.58;;;7.20;99.90;;;;;;5057695;27;88060;-80
2023/03/04 07:56:15;;;;;;;6.38;2.22;;;7.20;99.90;;;;;;5039348;27;88729;-80
2023/03/04 07:58:43;;;;;;;7.60;1.60;;;7.20;99.90;;;;;;5038886;27;91484;-80
2023/03/04 08:01:11;;;;;;;7.60;1.92;;;7.30;99.90;;;;;;5038627;27;96834;-80
2023/03/04 08:03:39;;;;;;;6.90;1.63;;;7.30;99.90;;;;;;5038735;27;89444;-80
2023/03/04 08:06:09;;;;;;;10.77;2.00;;;7.30;99.90;;;;;;5039020;27;91523;-80
2023/03/04 08:08:36;;;;;;;9.77;1.98;;;7.30;99.90;;;;;;5041388;27;88899;-80
2023/03/04 08:11:05;;;;;;;9.30;1.80;;;7.40;99.90;;;;;;5059438;27;88663;-81
2023/03/04 08:13:33;;;;;;;11.70;1.98;;;7.50;99.90;;;;;;5025159;27;89642;-80
2023/03/04 08:16:00;;;;;;;8.38;2.22;;;7.60;99.90;;;;;;5060678;27;88279;-81
2023/03/04 08:18:27;;;;;;;20.20;3.08;;;7.70;99.90;;;;;;5042612;27;88727;-80
2023/03/04 08:20:54;;;;;;;11.20;2.75;;;7.80;99.90;;;;;;5025263;27;94583;-80
2023/03/04 08:23:21;;;;;;;16.17;2.33;;;7.90;99.90;;;;;;5042494;27;88155;-80
2023/03/04 08:25:48;;;;;;;14.35;3.08;;;8.00;99.90;;;;;;5042163;27;90917;-80
2023/03/04 08:28:16;;;;;;;11.90;2.35;;;8.10;99.90;;;;;;5008704;27;90439;-80
2023/03/04 08:30:43;;;;;;;18.27;3.70;;;8.10;99.90;;;;;;5025742;27;91395;-80
2023/03/04 08:33:10;;;;;;;12.35;2.28;;;8.20;99.90;;;;;;5041867;27;89602;-80
2023/03/04 08:35:39;;;;;;;15.05;3.10;;;8.30;99.90;;;;;;5042071;27;91242;-80
2023/03/04 08:38:06;;;;;;;9.55;2.35;;;8.30;99.90;;;;;;5041558;27;89644;-81
2023/03/04 08:40:33;;;;;;;13.35;2.17;;;8.30;99.90;;;;;;5041894;27;92280;-80
2023/03/04 08:43:01;;;;;;;8.60;1.83;;;8.20;99.90;;;;;;5041844;27;93304;-80
2023/03/04 08:45:27;;;;;;;15.98;2.50;;;8.20;99.90;;;;;;5025466;27;88160;-80
2023/03/04 08:47:54;;;;;;;17.38;2.70;;;8.20;99.90;;;;;;5042097;27;88890;-80
2023/03/04 08:50:22;;;;;;;11.63;1.98;;;8.30;99.90;;;;;;5024984;27;91219;-81
2023/03/04 08:52:48;;;;;;;10.13;2.38;;;8.30;99.90;;;;;;5041952;27;87980;-81
2023/03/04 08:55:16;;;;;;;14.25;2.40;;;8.30;99.90;;;;;;5042340;27;88773;-80
2023/03/04 08:57:42;;;;;;;15.52;2.80;;;8.40;99.90;;;;;;5041965;27;88815;-80
2023/03/04 09:00:11;;;;;;;10.95;3.10;;;8.40;99.90;;;;;;5008026;27;91199;-80
2023/03/04 09:02:38;;;;;;;9.00;2.25;;;8.40;99.90;;;;;;5040692;27;88780;-80
2023/03/04 09:05:05;;;;;;;15.00;2.53;;;8.30;99.90;;;;;;5007647;27;91250;-80
2023/03/04 09:07:32;;;;;;;16.67;2.63;;;8.30;99.90;;;;;;5008282;27;91595;-80
2023/03/04 09:09:59;;;;;;;11.10;2.63;;;8.30;99.90;;;;;;5041716;27;88718;-80
2023/03/04 09:12:26;;;;;;;16.80;2.92;;;8.40;99.90;;;;;;5024777;27;89258;-80
2023/03/04 09:14:53;;;;;;;13.55;2.90;;;8.40;99.90;;;;;;5041476;27;91408;-80
2023/03/04 09:17:36;;;;;;;15.07;3.15;;;8.60;99.90;;;;;;4997860;27;90977;-80
2023/03/04 09:20:04;;;;;;;16.05;3.20;;;8.60;99.90;;;;;;5024748;27;91490;-80
2023/03/04 09:22:31;;;;;;;12.57;2.97;;;8.60;99.90;;;;;;5008431;27;89293;-80
2023/03/04 09:24:58;;;;;;;13.27;3.42;;;8.70;99.90;;;;;;5041453;27;89474;-80
2023/03/04 09:27:25;;;;;;;13.52;2.58;;;8.70;99.90;;;;;;5040947;27;89535;-81
2023/03/04 09:29:52;;;;;;;12.48;2.97;;;8.70;99.90;;;;;;5007879;27;91869;-80
2023/03/04 09:32:19;;;;;;;9.20;2.13;;;8.70;99.90;;;;;;5041183;27;88633;-81
2023/03/04 09:34:46;;;;;;;11.32;2.55;;;8.50;99.90;;;;;;5041520;27;88463;-81
2023/03/04 09:37:13;;;;;;;10.93;2.20;;;8.30;99.90;;;;;;5041071;27;88112;-80
2023/03/04 09:39:40;;;;;;;8.68;2.17;;;8.10;99.90;;;;;;5041294;27;88697;-80
2023/03/04 09:42:10;;;;;;;13.20;2.30;;;7.90;99.90;;;;;;5024387;27;89692;-80
2023/03/04 09:44:44;;;;;;;6.10;2.03;;;7.90;99.90;;;;;;5041240;27;91423;-80
2023/03/04 09:47:13;;;;;;;;;;;7.90;99.90;;;;;;5024599;27;90657;-80
2023/03/04 09:49:43;;;;;;;16.45;2.78;;;7.90;99.90;;;;;;5060434;27;88565;-80
2023/03/04 09:52:19;;;;;;;11.07;2.08;;;8.10;99.90;;;;;;5059061;27;88934;-80
2023/03/04 09:55:15;;;;;;;7.18;1.55;;;8.20;99.90;;;;;;5041036;27;91269;-80
2023/03/04 09:57:54;;;;;;;7.40;2.25;;;8.40;99.90;;;;;;5041009;27;89840;-80
2023/03/04 10:00:45;;;;;;;8.77;1.70;;;8.50;99.90;;;;;;5040962;27;88694;-80
2023/03/04 10:03:15;;;;;;;3.92;1.23;;;8.60;99.90;;;;;;5039671;27;88068;-80
2023/03/04 10:05:54;;;;;;;3.03;0.82;;;8.60;99.90;;;;;;5040152;27;91077;-80
2023/03/04 10:08:21;;;;;;;1.52;0.60;;;8.70;99.90;;;;;;5007463;27;91894;-80
2023/03/04 10:10:50;;;;;;;2.75;0.73;;;8.70;99.90;;;;;;5059326;27;88671;-80
2023/03/04 10:13:30;;;;;;;4.10;0.93;;;8.60;99.90;;;;;;5040537;27;87963;-81
2023/03/04 10:16:00;;;;;;;6.50;1.33;;;8.20;99.90;;;;;;5040111;27;91612;-80
2023/03/04 10:18:36;;;;;;;4.60;1.10;;;7.90;99.90;;;;;;5039719;27;92319;-81
2023/03/04 10:21:26;;;;;;;2.65;0.95;;;7.70;99.90;;;;;;5058919;27;89346;-80
2023/03/04 10:23:54;;;;;;;5.13;1.10;;;7.70;99.90;;;;;;5040472;27;88053;-80
2023/03/04 10:26:21;;;;;;;3.78;1.30;;;7.60;99.90;;;;;;5040008;27;91365;-80
2023/03/04 10:28:49;;;;;;;2.83;1.23;;;7.60;99.90;;;;;;5058604;27;88808;-78
2023/03/04 10:31:40;;;;;;;5.47;1.27;;;7.60;99.90;;;;;;5039650;27;88665;-78
2023/03/04 10:34:10;;;;;;;5.55;1.98;;;7.80;99.90;;;;;;5023465;27;89333;-78
2023/03/04 10:36:43;;;;;;;4.07;1.10;;;8.00;99.90;;;;;;5058817;27;88739;-80
2023/03/04 10:39:24;;;;;;;10.13;1.75;;;8.30;99.90;;;;;;5040075;27;88832;-81
2023/03/04 10:42:20;;;;;;;6.30;1.40;;;8.40;99.90;;;;;;5039973;27;91088;-80
2023/03/04 10:44:58;;;;;;;7.18;1.92;;;8.30;99.90;;;;;;5039678;27;90712;-81
2023/03/04 10:47:28;;;;;;;6.07;1.58;;;8.10;99.90;;;;;;5058228;27;88452;-80
2023/03/04 10:50:00;;;;;;;10.77;2.03;;;8.00;99.90;;;;;;5058147;27;89197;-80
2023/03/04 10:52:31;;;;;;;11.23;2.05;;;7.90;99.90;;;;;;5023396;27;88448;-80
2023/03/04 10:55:03;;;;;;;10.80;2.55;;;7.90;99.90;;;;;;5023222;27;89446;-78
2023/03/04 10:57:42;;;;;;;16.38;2.80;;;8.10;99.90;;;;;;5033220;28;96530;-79
2023/03/04 11:00:35;;;;;;;11.40;2.05;;;8.30;99.90;;;;;;5019702;28;91819;-78
2023/03/04 11:03:21;;;;;;;9.77;1.98;;;8.40;99.90;;;;;;5007549;28;88622;-78
2023/03/04 11:05:48;;;;;;;8.38;1.77;;;8.70;99.90;;;;;;4997993;28;88712;-79
2023/03/04 11:08:21;;;;;;;15.48;3.30;;;8.70;99.90;;;;;;4979625;28;89468;-78
2023/03/04 11:10:50;;;;;;;10.00;1.88;;;8.90;99.90;;;;;;4995986;28;89869;-78
2023/03/04 11:13:23;;;;;;;7.15;1.80;;;9.00;99.90;;;;;;4979774;28;90392;-78
2023/03/04 11:16:02;;;;;;;12.70;2.80;;;9.20;99.90;;;;;;4997541;28;88420;-78
2023/03/04 11:18:53;;;;;;;8.98;1.90;;;9.30;99.90;;;;;;4995787;28;88408;-79
2023/03/04 11:21:25;;;;;;;8.35;2.17;;;9.50;99.90;;;;;;4979590;28;90062;-79
2023/03/04 11:23:58;;;;;;;8.40;1.98;;;9.40;99.90;;;;;;4997468;28;88680;-79
2023/03/04 11:26:30;;;;;;;7.78;1.73;;;9.50;99.90;;;;;;4979263;28;89901;-79
2023/03/04 11:29:03;;;;;;;6.53;1.52;;;9.60;99.90;;;;;;4996311;28;90582;-79
2023/03/04 11:31:46;;;;;;;11.32;1.75;;;9.50;99.90;;;;;;4996224;28;88783;-79
2023/03/04 11:34:24;;;;;;;7.78;1.92;;;9.40;99.90;;;;;;4996160;28;88784;-78
2023/03/04 11:37:02;;;;;;;8.63;2.20;;;9.40;99.90;;;;;;4995524;28;89532;-79
2023/03/04 11:39:37;;;;;;;10.18;1.70;;;9.40;99.90;;;;;;4996975;28;88415;-79
2023/03/04 11:42:09;;;;;;;8.93;2.13;;;9.40;99.90;;;;;;4997365;28;89147;-78
2023/03/04 11:44:36;;;;;;;12.20;2.28;;;9.30;99.90;;;;;;4999175;28;88759;-79
2023/03/04 11:47:32;;;;;;;10.25;1.67;;;9.40;99.90;;;;;;4982954;28;89177;-78
2023/03/04 11:50:05;;;;;;;7.18;2.03;;;9.40;99.90;;;;;;4986155;28;90284;-78
2023/03/04 11:53:20;;;;;;;8.15;2.10;;;9.50;99.90;;;;;;5000692;28;88788;-79
2023/03/04 11:56:10;;;;;;;5.85;1.70;;;9.50;99.90;;;;;;4986668;28;88612;-79
2023/03/04 11:59:04;;;;;;;5.72;1.80;;;9.50;99.90;;;;;;4998944;28;89348;-78
2023/03/04 12:02:03;;;;;;;9.98;1.80;;;9.40;99.90;;;;;;4998744;28;90894;-78
2023/03/04 12:04:56;;;;;;;10.55;1.70;;;9.10;99.90;;;;;;4996616;28;89693;-78
2023/03/04 12:07:34;;;;;;;7.47;1.90;;;9.00;99.90;;;;;;5000282;28;89341;-78
2023/03/04 12:10:13;;;;;;;5.80;1.45;;;9.10;99.90;;;;;;4998790;28;89865;-78
2023/03/04 12:13:08;;;;;;;7.95;1.77;;;9.30;99.90;;;;;;4998627;28;88648;-79
2023/03/04 12:16:11;;;;;;;5.05;1.38;;;9.50;99.90;;;;;;5000072;28;88946;-78
2023/03/04 12:19:06;;;;;;;11.50;2.22;;;9.40;99.90;;;;;;4998788;28;88726;-78
2023/03/04 12:22:05;;;;;;;11.45;2.85;;;9.10;99.90;;;;;;5000270;28;88097;-78
2023/03/04 12:24:39;;;;;;;12.05;2.33;;;8.70;99.90;;;;;;4999255;28;88310;-78
2023/03/04 12:27:21;;;;;;;6.22;2.30;;;8.30;99.90;;;;;;4998748;28;89151;-79
2023/03/04 12:29:55;;;;;;;8.30;2.03;;;8.00;99.90;;;;;;4998844;28;88603;-78
2023/03/04 12:32:29;;;;;;;;;;;7.80;99.90;;;;;;5000324;28;88676;-78
2023/03/04 12:35:29;;;;;;;10.93;1.48;;;7.70;99.90;;;;;;4983278;28;90995;-78
2023/03/04 12:38:18;;;;;;;10.98;1.52;;;7.70;99.90;;;;;;5000126;28;88761;-78
2023/03/04 12:41:03;;;;;;;7.20;2.55;;;7.80;99.90;;;;;;4998702;28;88867;-78
2023/03/04 12:43:40;;;;;;;11.60;1.92;;;7.90;99.90;;;;;;4998363;28;89422;-78
2023/03/04 12:46:19;;;;;;;11.73;1.88;;;8.20;99.90;;;;;;4999851;28;88318;-78
2023/03/04 12:49:01;;;;;;;13.75;2.85;;;8.40;99.90;;;;;;4981730;28;91227;-78
2023/03/04 12:51:46;;;;;;;6.03;1.65;;;8.60;99.90;;;;;;4981930;28;91723;-78
2023/03/04 12:54:31;;;;;;;7.38;1.42;;;8.90;99.90;;;;;;4997943;28;89051;-78
2023/03/04 12:57:11;;;;;;;9.45;2.03;;;9.10;99.90;;;;;;4998231;28;91209;-79
2023/03/04 12:59:54;;;;;;;6.60;2.15;;;9.10;99.90;;;;;;4997593;28;92663;-78
2023/03/04 13:02:45;;;;;;;8.25;1.88;;;9.00;99.90;;;;;;5005297;28;89363;-78
2023/03/04 13:05:30;;;;;;;11.90;2.53;;;9.00;99.90;;;;;;5003915;28;89389;-78
2023/03/04 13:08:15;;;;;;;8.77;2.22;;;8.90;99.90;;;;;;5039743;28;87962;-78
2023/03/04 13:10:42;;;;;;;9.93;2.13;;;9.00;99.90;;;;;;5021356;28;91283;-78
2023/03/04 13:13:31;;;;;;;8.82;1.90;;;9.00;99.90;;;;;;5039312;28;88645;-78